Time;durP1;ratioP1;P1;durP2;ratioP2;P2;SDS_P1;SDS_P2;PMS_P1;PMS_P2;Temp;Humidity;BMP_temperature;BMP_pressure;BME280_temperature;BME280_humidity;BME280_pressure;Samples;Min_cycle;Max_cycle;Signal;HPM_P1;HPM_P2
2021/07/28 00:00:05;;;;;;;7.87;7.27;;;;;;;;;;5032125;28;24479;-52
2021/07/28 00:02:30;;;;;;;7.40;6.90;;;;;;;;;;5007322;28;24763;-52
2021/07/28 00:04:55;;;;;;;8.20;7.50;;;;;;;;;;5036383;28;24423;-52
2021/07/28 00:07:20;;;;;;;7.25;6.70;;;;;;;;;;5026569;28;24500;-52
2021/07/28 00:09:45;;;;;;;9.02;8.13;;;;;;;;;;5025157;28;24422;-52
2021/07/28 00:12:11;;;;;;;7.80;7.20;;;;;;;;;;5029406;28;24415;-52
2021/07/28 00:14:36;;;;;;;8.33;7.73;;;;;;;;;;5010878;28;24817;-53
2021/07/28 00:17:02;;;;;;;8.00;7.40;;;;;;;;;;5029033;28;24403;-52
2021/07/28 00:19:34;;;;;;;7.80;7.20;;;;;;;;;;5031307;28;24435;-53
2021/07/28 00:24:43;;;;;;;7.73;7.20;;;;;;;;;;5030167;28;24866;-53
2021/07/28 00:27:08;;;;;;;8.20;7.40;;;;;;;;;;5012300;28;24925;-53
2021/07/28 00:29:35;;;;;;;8.13;7.53;;;;;;;;;;5006959;28;24982;-52
2021/07/28 00:32:00;;;;;;;8.43;7.78;;;;;;;;;;5022794;28;24786;-53
2021/07/28 00:34:26;;;;;;;7.57;6.90;;;;;;;;;;5019076;28;24965;-52
2021/07/28 00:36:51;;;;;;;8.00;7.30;;;;;;;;;;5034318;28;24427;-52
2021/07/28 00:39:16;;;;;;;7.40;6.90;;;;;;;;;;5034680;28;24419;-53
2021/07/28 00:41:42;;;;;;;7.55;6.95;;;;;;;;;;5024366;28;24492;-52
2021/07/28 00:44:07;;;;;;;7.10;6.60;;;;;;;;;;5015393;28;24419;-53
2021/07/28 00:46:32;;;;;;;7.30;6.80;;;;;;;;;;5033061;28;24443;-53
2021/07/28 00:48:57;;;;;;;6.57;6.07;;;;;;;;;;5033026;28;24446;-53
2021/07/28 00:51:22;;;;;;;7.50;6.90;;;;;;;;;;5023816;28;24412;-53
2021/07/28 00:53:48;;;;;;;8.40;7.70;;;;;;;;;;5021029;28;24407;-53
2021/07/28 00:56:13;;;;;;;8.63;7.73;;;;;;;;;;5023147;28;24562;-53
2021/07/28 00:58:40;;;;;;;7.97;7.27;;;;;;;;;;5033024;28;24436;-52
2021/07/28 01:01:05;;;;;;;7.15;6.55;;;;;;;;;;5014564;28;24417;-52
2021/07/28 01:03:30;;;;;;;6.70;6.30;;;;;;;;;;5048522;28;24422;-51
2021/07/28 01:05:56;;;;;;;7.13;6.53;;;;;;;;;;5021858;28;24435;-51
2021/07/28 01:08:22;;;;;;;7.07;6.57;;;;;;;;;;5014843;28;24427;-52
2021/07/28 01:10:47;;;;;;;7.10;6.60;;;;;;;;;;5021684;28;24916;-52
2021/07/28 01:13:14;;;;;;;10.40;7.50;;;;;;;;;;5011049;28;24407;-52
2021/07/28 01:15:40;;;;;;;7.50;7.00;;;;;;;;;;5024984;28;24411;-53
2021/07/28 01:18:07;;;;;;;8.60;7.90;;;;;;;;;;5025700;28;24481;-51
2021/07/28 01:20:33;;;;;;;7.45;6.85;;;;;;;;;;5013383;28;24718;-52
2021/07/28 01:22:59;;;;;;;8.23;7.57;;;;;;;;;;5026125;28;24408;-53
2021/07/28 01:25:24;;;;;;;8.07;7.47;;;;;;;;;;5030216;28;24779;-53
2021/07/28 01:27:49;;;;;;;7.43;6.73;;;;;;;;;;5034745;28;24491;-52
2021/07/28 01:30:15;;;;;;;8.20;7.60;;;;;;;;;;5020209;28;24960;-53
2021/07/28 01:32:40;;;;;;;7.37;6.80;;;;;;;;;;5037832;28;24478;-52
2021/07/28 01:35:07;;;;;;;7.75;7.05;;;;;;;;;;5019999;28;24420;-53
2021/07/28 01:37:32;;;;;;;8.10;7.40;;;;;;;;;;5032734;28;24498;-53
2021/07/28 01:39:57;;;;;;;8.20;7.60;;;;;;;;;;5030234;28;24929;-53
2021/07/28 01:42:23;;;;;;;7.80;7.20;;;;;;;;;;5039976;28;24458;-53
2021/07/28 01:44:48;;;;;;;8.47;7.83;;;;;;;;;;5027123;28;24488;-53
2021/07/28 01:47:13;;;;;;;7.97;7.30;;;;;;;;;;5016085;28;25004;-53
2021/07/28 01:49:38;;;;;;;8.35;7.75;;;;;;;;;;5019987;28;25016;-53
2021/07/28 01:52:03;;;;;;;7.90;7.30;;;;;;;;;;5032842;28;24418;-52
2021/07/28 01:54:28;;;;;;;6.90;6.50;;;;;;;;;;5021125;28;24503;-53
2021/07/28 01:56:53;;;;;;;8.20;7.40;;;;;;;;;;5014967;28;24408;-53
2021/07/28 01:59:21;;;;;;;7.80;7.20;;;;;;;;;;5022398;28;24602;-53
2021/07/28 02:01:46;;;;;;;7.60;7.00;;;;;;;;;;5015401;28;24427;-53
2021/07/28 02:04:11;;;;;;;7.78;7.28;;;;;;;;;;5023806;28;24420;-53
2021/07/28 02:06:36;;;;;;;8.38;7.68;;;;;;;;;;5030608;28;24420;-53
2021/07/28 02:09:01;;;;;;;7.87;7.27;;;;;;;;;;5023414;28;24518;-53
2021/07/28 02:11:27;;;;;;;8.40;7.80;;;;;;;;;;5022350;28;24428;-53
2021/07/28 02:13:52;;;;;;;7.80;7.20;;;;;;;;;;5019172;28;24420;-53
2021/07/28 02:16:17;;;;;;;8.10;7.40;;;;;;;;;;5017798;28;24550;-53
2021/07/28 02:18:42;;;;;;;8.50;7.90;;;;;;;;;;5015310;28;24950;-52
2021/07/28 02:21:07;;;;;;;7.40;6.90;;;;;;;;;;5029529;28;24451;-53
2021/07/28 02:23:32;;;;;;;9.60;8.80;;;;;;;;;;5039221;28;24450;-53
2021/07/28 02:25:58;;;;;;;8.43;7.82;;;;;;;;;;5033682;28;24996;-53
2021/07/28 02:28:23;;;;;;;9.50;8.50;;;;;;;;;;5024605;28;24419;-52
2021/07/28 02:30:48;;;;;;;9.05;8.25;;;;;;;;;;5026159;28;24459;-52
2021/07/28 02:33:13;;;;;;;8.85;8.05;;;;;;;;;;5030863;28;24416;-52
2021/07/28 02:35:38;;;;;;;9.03;8.17;;;;;;;;;;5029248;28;24957;-52
2021/07/28 02:38:04;;;;;;;8.70;8.10;;;;;;;;;;5025748;28;24454;-52
2021/07/28 02:40:29;;;;;;;8.93;8.32;;;;;;;;;;5023389;28;24910;-52
2021/07/28 02:42:54;;;;;;;9.43;8.53;;;;;;;;;;5022533;28;24466;-53
2021/07/28 02:45:19;;;;;;;9.40;8.60;;;;;;;;;;5017200;28;25272;-52
2021/07/28 02:47:44;;;;;;;9.10;8.30;;;;;;;;;;5028904;28;24430;-52
2021/07/28 02:50:10;;;;;;;8.87;8.17;;;;;;;;;;5019139;28;24490;-53
2021/07/28 02:52:35;;;;;;;8.82;8.13;;;;;;;;;;5013407;28;24539;-53
2021/07/28 02:55:05;;;;;;;9.17;8.47;;;;;;;;;;5032820;28;24504;-53
2021/07/28 02:57:30;;;;;;;10.35;9.55;;;;;;;;;;5037463;28;24842;-53
2021/07/28 02:59:55;;;;;;;10.53;9.73;;;;;;;;;;5024584;28;24974;-53
2021/07/28 03:02:21;;;;;;;9.73;9.03;;;;;;;;;;5028221;28;24451;-53
2021/07/28 03:04:46;;;;;;;9.57;8.67;;;;;;;;;;5029114;28;24974;-53
2021/07/28 03:07:11;;;;;;;8.30;7.70;;;;;;;;;;5028144;28;24412;-53
2021/07/28 03:09:36;;;;;;;9.70;8.90;;;;;;;;;;5034031;28;24458;-53
2021/07/28 03:12:01;;;;;;;10.18;9.38;;;;;;;;;;5022707;28;25068;-52
2021/07/28 03:14:26;;;;;;;9.20;8.60;;;;;;;;;;5028548;28;24400;-52
2021/07/28 03:16:52;;;;;;;8.80;8.10;;;;;;;;;;5013037;28;24474;-52
2021/07/28 03:19:17;;;;;;;8.45;7.85;;;;;;;;;;5030056;28;24546;-52
2021/07/28 03:21:42;;;;;;;7.67;7.17;;;;;;;;;;5024339;28;24420;-51
2021/07/28 03:24:07;;;;;;;8.50;7.90;;;;;;;;;;5015879;28;24413;-51
2021/07/28 03:26:32;;;;;;;8.73;8.13;;;;;;;;;;5018540;28;24428;-52
2021/07/28 03:28:57;;;;;;;7.72;7.13;;;;;;;;;;5017013;28;24583;-52
2021/07/28 03:31:22;;;;;;;8.40;7.70;;;;;;;;;;5026508;28;24760;-51
2021/07/28 03:33:48;;;;;;;8.20;7.50;;;;;;;;;;5025625;28;24414;-52
2021/07/28 03:36:13;;;;;;;8.23;7.63;;;;;;;;;;5034904;28;24766;-52
2021/07/28 03:38:38;;;;;;;8.00;7.30;;;;;;;;;;5018938;28;24511;-52
2021/07/28 03:41:03;;;;;;;8.25;7.65;;;;;;;;;;5018107;28;24478;-52
2021/07/28 03:43:28;;;;;;;8.43;7.83;;;;;;;;;;5026391;28;24439;-52
2021/07/28 03:45:54;;;;;;;8.70;8.10;;;;;;;;;;5023584;28;24412;-52
2021/07/28 03:48:19;;;;;;;8.80;8.10;;;;;;;;;;5030632;28;24487;-52
2021/07/28 03:50:44;;;;;;;8.70;7.90;;;;;;;;;;5037948;28;24965;-52
2021/07/28 03:53:09;;;;;;;8.40;7.80;;;;;;;;;;5021690;28;24474;-53
2021/07/28 03:55:35;;;;;;;7.43;6.82;;;;;;;;;;5007437;28;24451;-53
2021/07/28 03:58:00;;;;;;;7.40;6.80;;;;;;;;;;5015189;28;24502;-53
2021/07/28 04:00:25;;;;;;;7.82;7.22;;;;;;;;;;5035251;28;24430;-53
2021/07/28 04:02:50;;;;;;;8.60;7.90;;;;;;;;;;5036991;28;24957;-54
2021/07/28 04:05:15;;;;;;;7.57;7.07;;;;;;;;;;5023884;28;24543;-53
2021/07/28 04:07:41;;;;;;;8.00;7.20;;;;;;;;;;5029030;28;24417;-53
2021/07/28 04:10:06;;;;;;;8.30;7.70;;;;;;;;;;5017374;28;24738;-54
2021/07/28 04:12:32;;;;;;;7.40;6.90;;;;;;;;;;5011856;28;24415;-53
2021/07/28 04:14:57;;;;;;;7.50;7.00;;;;;;;;;;5029184;28;24499;-53
2021/07/28 04:17:22;;;;;;;6.90;6.40;;;;;;;;;;5025392;28;24428;-53
2021/07/28 04:19:50;;;;;;;6.68;6.18;;;;;;;;;;5022328;28;24423;-54
2021/07/28 04:22:16;;;;;;;6.75;6.15;;;;;;;;;;5034548;28;24466;-53
2021/07/28 04:24:41;;;;;;;7.05;6.45;;;;;;;;;;5028365;28;25241;-54
2021/07/28 04:27:06;;;;;;;7.05;6.55;;;;;;;;;;5014338;28;24488;-53
2021/07/28 04:29:31;;;;;;;6.60;6.10;;;;;;;;;;5028439;28;24428;-54
2021/07/28 04:31:56;;;;;;;7.85;7.25;;;;;;;;;;5033555;28;25026;-54
2021/07/28 04:34:21;;;;;;;6.60;6.00;;;;;;;;;;5030655;28;24529;-54
2021/07/28 04:36:47;;;;;;;6.63;6.22;;;;;;;;;;5011799;28;24433;-54
2021/07/28 04:39:12;;;;;;;7.27;6.67;;;;;;;;;;5026174;28;24482;-54
2021/07/28 04:41:37;;;;;;;6.83;6.33;;;;;;;;;;5014895;28;24542;-53
2021/07/28 04:44:02;;;;;;;7.90;7.20;;;;;;;;;;5024100;28;24432;-52
2021/07/28 04:46:27;;;;;;;6.90;6.40;;;;;;;;;;5031034;28;24431;-54
2021/07/28 04:48:54;;;;;;;8.65;7.85;;;;;;;;;;5030981;28;24443;-54
2021/07/28 04:51:19;;;;;;;6.50;6.10;;;;;;;;;;5020575;28;24412;-52
2021/07/28 04:53:45;;;;;;;7.40;6.90;;;;;;;;;;5028595;28;24474;-53
2021/07/28 04:56:10;;;;;;;6.90;6.40;;;;;;;;;;5037013;28;24787;-53
2021/07/28 04:58:35;;;;;;;6.43;6.03;;;;;;;;;;5022839;28;24428;-52
2021/07/28 05:01:00;;;;;;;7.30;6.80;;;;;;;;;;5018272;28;24451;-53
2021/07/28 05:03:26;;;;;;;7.33;6.83;;;;;;;;;;5021841;28;24992;-54
2021/07/28 05:05:51;;;;;;;6.80;6.30;;;;;;;;;;5008017;28;24412;-54
2021/07/28 05:08:16;;;;;;;6.77;6.37;;;;;;;;;;5036552;28;24430;-54
2021/07/28 05:10:41;;;;;;;6.37;5.87;;;;;;;;;;5046570;28;24398;-55
2021/07/28 05:13:06;;;;;;;6.10;5.70;;;;;;;;;;5040840;28;25082;-54
2021/07/28 05:15:32;;;;;;;7.10;6.60;;;;;;;;;;5025624;28;24423;-54
2021/07/28 05:17:57;;;;;;;7.65;7.05;;;;;;;;;;5037581;28;24462;-54
2021/07/28 05:20:22;;;;;;;7.60;7.00;;;;;;;;;;5037683;28;24450;-55
2021/07/28 05:22:48;;;;;;;7.37;6.77;;;;;;;;;;5044811;28;24525;-54
2021/07/28 05:25:14;;;;;;;6.90;6.40;;;;;;;;;;5034924;28;25151;-54
2021/07/28 05:27:39;;;;;;;6.60;6.10;;;;;;;;;;5038885;28;25389;-52
2021/07/28 05:30:05;;;;;;;6.63;6.13;;;;;;;;;;5045077;28;24477;-52
2021/07/28 05:32:30;;;;;;;6.63;6.22;;;;;;;;;;5038163;28;24859;-53
2021/07/28 05:34:55;;;;;;;6.40;5.90;;;;;;;;;;5035036;28;24772;-53
2021/07/28 05:37:20;;;;;;;6.40;6.00;;;;;;;;;;5048774;28;24418;-54
2021/07/28 05:39:45;;;;;;;7.78;7.18;;;;;;;;;;5039684;28;24478;-53
2021/07/28 05:42:11;;;;;;;6.67;6.17;;;;;;;;;;5029550;28;24391;-53
2021/07/28 05:44:36;;;;;;;6.47;6.07;;;;;;;;;;5027856;28;24985;-53
2021/07/28 05:47:01;;;;;;;7.30;6.70;;;;;;;;;;5030080;28;24762;-53
2021/07/28 05:49:26;;;;;;;7.18;6.57;;;;;;;;;;5029194;28;24483;-53
2021/07/28 05:51:51;;;;;;;7.57;6.97;;;;;;;;;;5029709;28;24403;-53
2021/07/28 05:54:16;;;;;;;7.53;6.93;;;;;;;;;;5028301;28;24805;-53
2021/07/28 05:56:42;;;;;;;6.50;6.00;;;;;;;;;;5027396;28;24411;-54
2021/07/28 05:59:07;;;;;;;6.93;6.40;;;;;;;;;;5030529;28;24395;-53
2021/07/28 06:01:32;;;;;;;6.82;6.32;;;;;;;;;;5032074;28;24884;-53
2021/07/28 06:03:57;;;;;;;6.70;6.20;;;;;;;;;;5034614;28;24411;-53
2021/07/28 06:06:26;;;;;;;7.35;6.75;;;;;;;;;;5027827;28;24434;-54
2021/07/28 06:08:51;;;;;;;6.78;6.28;;;;;;;;;;5030932;28;24481;-53
2021/07/28 06:11:16;;;;;;;6.90;6.40;;;;;;;;;;5036561;28;24427;-54
2021/07/28 06:13:41;;;;;;;6.47;5.97;;;;;;;;;;5038630;28;24444;-53
2021/07/28 06:16:06;;;;;;;6.77;6.27;;;;;;;;;;5027299;28;24427;-53
2021/07/28 06:18:33;;;;;;;6.60;6.20;;;;;;;;;;5038906;28;25041;-54
2021/07/28 06:20:58;;;;;;;7.30;6.70;;;;;;;;;;5037646;28;24411;-53
2021/07/28 06:23:23;;;;;;;7.80;7.20;;;;;;;;;;5032309;28;24419;-53
2021/07/28 06:25:49;;;;;;;8.95;8.18;;;;;;;;;;5042784;28;24515;-53
2021/07/28 06:28:14;;;;;;;6.20;5.80;;;;;;;;;;5025679;28;25292;-54
2021/07/28 06:30:39;;;;;;;7.83;7.23;;;;;;;;;;5034914;28;24431;-54
2021/07/28 06:51:23;;;;;;;8.80;8.20;;;;;;;;;;5999498;23;20716;-51
2021/07/28 06:53:48;;;;;;;7.67;6.97;;;;;;;;;;4988536;28;24433;-53
2021/07/28 06:56:14;;;;;;;7.20;6.60;;;;;;;;;;4996339;28;24980;-54
2021/07/28 06:58:40;;;;;;;7.63;7.03;;;;;;;;;;4988831;28;24409;-54
2021/07/28 07:01:07;;;;;;;8.03;7.47;;;;;;;;;;4993861;28;24528;-53
2021/07/28 07:03:32;;;;;;;7.60;7.00;;;;;;;;;;4993996;28;24515;-53
2021/07/28 07:05:57;;;;;;;7.45;6.95;;;;;;;;;;5003578;28;24408;-53
2021/07/28 07:08:22;;;;;;;7.47;6.97;;;;;;;;;;4998128;28;24533;-53
2021/07/28 07:10:47;;;;;;;8.67;7.97;;;;;;;;;;4979422;28;24763;-53
2021/07/28 07:13:13;;;;;;;8.80;8.10;;;;;;;;;;4984754;28;24631;-53
2021/07/28 07:15:38;;;;;;;8.23;7.63;;;;;;;;;;5000008;28;24488;-54
2021/07/28 07:18:03;;;;;;;8.38;7.68;;;;;;;;;;5001201;28;24405;-53
2021/07/28 07:20:28;;;;;;;8.13;7.50;;;;;;;;;;5006669;28;24400;-53
2021/07/28 07:22:53;;;;;;;8.07;7.47;;;;;;;;;;5007636;28;24424;-53
2021/07/28 07:25:20;;;;;;;8.20;7.60;;;;;;;;;;5007559;28;25064;-54
2021/07/28 07:27:45;;;;;;;9.13;8.35;;;;;;;;;;5008262;28;24500;-53
2021/07/28 07:30:10;;;;;;;7.37;6.87;;;;;;;;;;5007989;28;24527;-53
2021/07/28 07:32:35;;;;;;;7.80;7.03;;;;;;;;;;5007953;28;24477;-52
2021/07/28 07:35:01;;;;;;;7.70;7.10;;;;;;;;;;5007641;28;24408;-53
2021/07/28 07:37:26;;;;;;;7.30;6.70;;;;;;;;;;5008188;28;24468;-53
2021/07/28 07:39:52;;;;;;;8.20;7.40;;;;;;;;;;5007608;28;24910;-53
2021/07/28 07:42:17;;;;;;;8.47;7.80;;;;;;;;;;5008009;28;24818;-53
2021/07/28 07:44:44;;;;;;;7.43;6.83;;;;;;;;;;5007607;28;24412;-53
2021/07/28 07:47:10;;;;;;;7.10;6.60;;;;;;;;;;5005883;28;24411;-53
2021/07/28 07:49:35;;;;;;;7.10;6.60;;;;;;;;;;5007666;28;24425;-53
2021/07/28 07:52:00;;;;;;;6.57;6.18;;;;;;;;;;4990798;28;24417;-53
2021/07/28 07:54:26;;;;;;;7.20;6.70;;;;;;;;;;4987802;28;24520;-53
2021/07/28 07:56:51;;;;;;;6.90;6.40;;;;;;;;;;4987978;28;24509;-53
2021/07/28 07:59:16;;;;;;;8.00;7.30;;;;;;;;;;4988120;28;24404;-53
2021/07/28 08:01:41;;;;;;;7.07;6.57;;;;;;;;;;4988309;28;24413;-53
2021/07/28 08:04:06;;;;;;;6.60;6.10;;;;;;;;;;4987986;28;24402;-54
2021/07/28 08:06:32;;;;;;;6.38;5.82;;;;;;;;;;4988110;28;24476;-54
2021/07/28 08:08:58;;;;;;;6.82;6.40;;;;;;;;;;4988187;28;24771;-53
2021/07/28 08:11:23;;;;;;;7.25;6.75;;;;;;;;;;4987400;28;24975;-54
2021/07/28 08:13:48;;;;;;;6.43;6.00;;;;;;;;;;4987830;28;24409;-53
2021/07/28 08:16:16;;;;;;;6.30;5.90;;;;;;;;;;4988101;28;24416;-54
2021/07/28 08:18:41;;;;;;;6.93;6.43;;;;;;;;;;4988632;28;24455;-53
2021/07/28 08:21:08;;;;;;;6.60;6.20;;;;;;;;;;4987875;28;24401;-53
2021/07/28 08:23:34;;;;;;;6.40;5.90;;;;;;;;;;4987030;28;24523;-53
2021/07/28 08:25:59;;;;;;;6.90;6.40;;;;;;;;;;4988452;28;24520;-53
2021/07/28 08:28:24;;;;;;;7.00;6.50;;;;;;;;;;4987960;28;24397;-54
2021/07/28 08:30:49;;;;;;;7.50;7.00;;;;;;;;;;4988043;28;24757;-53
2021/07/28 08:33:14;;;;;;;6.82;6.32;;;;;;;;;;4987204;28;24436;-53
2021/07/28 08:35:39;;;;;;;6.85;6.40;;;;;;;;;;4987873;28;24771;-54
2021/07/28 08:38:05;;;;;;;5.72;5.32;;;;;;;;;;4987620;28;24432;-53
2021/07/28 08:40:31;;;;;;;6.60;6.10;;;;;;;;;;4987635;28;24404;-54
2021/07/28 08:42:58;;;;;;;7.20;6.63;;;;;;;;;;4987465;28;24439;-54
2021/07/28 08:45:23;;;;;;;6.88;6.38;;;;;;;;;;4987815;28;24397;-54
2021/07/28 08:47:48;;;;;;;6.50;6.10;;;;;;;;;;4988127;28;24485;-54
2021/07/28 08:50:13;;;;;;;6.10;5.70;;;;;;;;;;4987663;28;24409;-54
2021/07/28 08:52:39;;;;;;;6.93;6.43;;;;;;;;;;4987378;28;24444;-54
2021/07/28 08:55:05;;;;;;;7.20;6.70;;;;;;;;;;4986972;28;24958;-53
2021/07/28 08:57:34;;;;;;;6.60;6.10;;;;;;;;;;4990070;28;25000;-54
2021/07/28 09:00:00;;;;;;;6.50;6.10;;;;;;;;;;4991125;28;24942;-53
2021/07/28 09:02:25;;;;;;;7.20;6.60;;;;;;;;;;4991332;28;24475;-53
2021/07/28 09:04:51;;;;;;;6.40;6.00;;;;;;;;;;4990478;28;24516;-54
2021/07/28 09:07:16;;;;;;;6.90;6.40;;;;;;;;;;4990709;28;24451;-53
2021/07/28 09:09:48;;;;;;;6.77;6.17;;;;;;;;;;4991067;28;24456;-54
2021/07/28 09:12:14;;;;;;;6.20;5.80;;;;;;;;;;4991006;28;24388;-53
2021/07/28 09:14:49;;;;;;;7.00;6.50;;;;;;;;;;4990884;28;24413;-53
2021/07/28 09:17:17;;;;;;;5.90;5.50;;;;;;;;;;4990485;28;24412;-54
2021/07/28 09:19:46;;;;;;;6.20;5.80;;;;;;;;;;4991115;28;24479;-54
2021/07/28 09:22:11;;;;;;;5.80;5.40;;;;;;;;;;4990825;28;24397;-54
2021/07/28 09:24:37;;;;;;;4.95;4.57;;;;;;;;;;4990248;28;24572;-54
2021/07/28 09:27:02;;;;;;;6.10;5.70;;;;;;;;;;4990877;28;24405;-54
2021/07/28 09:29:28;;;;;;;5.90;5.50;;;;;;;;;;4990584;28;25081;-54
2021/07/28 09:32:00;;;;;;;5.60;5.20;;;;;;;;;;4990632;28;24396;-54
2021/07/28 09:34:25;;;;;;;5.90;5.43;;;;;;;;;;4989740;28;24440;-54
2021/07/28 09:36:51;;;;;;;5.53;5.23;;;;;;;;;;4990497;28;24792;-54
2021/07/28 09:39:23;;;;;;;5.90;5.40;;;;;;;;;;4990181;28;24491;-54
2021/07/28 09:41:48;;;;;;;6.00;5.60;;;;;;;;;;4990759;28;24767;-54
2021/07/28 09:44:22;;;;;;;6.13;5.63;;;;;;;;;;4989993;28;24915;-54
2021/07/28 09:46:50;;;;;;;5.70;5.30;;;;;;;;;;4982370;28;24755;-54
2021/07/28 09:49:18;;;;;;;5.60;5.20;;;;;;;;;;4990178;28;24402;-54
2021/07/28 09:51:45;;;;;;;5.10;4.80;;;;;;;;;;4990319;28;24432;-53
2021/07/28 09:54:12;;;;;;;5.40;5.00;;;;;;;;;;4990287;28;24997;-54
2021/07/28 09:56:45;;;;;;;5.60;5.18;;;;;;;;;;4990111;28;24521;-54
2021/07/28 09:59:10;;;;;;;5.10;4.80;;;;;;;;;;4990174;28;24443;-54
2021/07/28 10:01:36;;;;;;;4.77;4.47;;;;;;;;;;4989852;28;24452;-54
2021/07/28 10:04:02;;;;;;;5.30;4.90;;;;;;;;;;4990086;28;24396;-54
2021/07/28 10:06:39;;;;;;;4.78;4.47;;;;;;;;;;4989855;28;24452;-54
2021/07/28 10:09:05;;;;;;;4.57;4.28;;;;;;;;;;4989459;28;24863;-54
2021/07/28 10:11:31;;;;;;;4.13;3.83;;;;;;;;;;4989771;28;24496;-54
2021/07/28 10:13:56;;;;;;;4.80;4.40;;;;;;;;;;4989986;28;24489;-54
2021/07/28 10:16:22;;;;;;;4.30;4.00;;;;;;;;;;4989189;28;24421;-53
2021/07/28 10:18:49;;;;;;;4.40;4.10;;;;;;;;;;4989833;28;24752;-54
2021/07/28 10:21:14;;;;;;;4.30;4.00;;;;;;;;;;4989604;28;24405;-54
2021/07/28 10:23:41;;;;;;;4.70;4.40;;;;;;;;;;4989798;28;24408;-54
2021/07/28 10:26:06;;;;;;;4.53;4.22;;;;;;;;;;4989463;28;24397;-54
2021/07/28 10:28:32;;;;;;;5.40;4.60;;;;;;;;;;4988980;28;24985;-54
2021/07/28 10:31:14;;;;;;;4.63;4.22;;;;;;;;;;4989527;28;25019;-53
2021/07/28 10:33:46;;;;;;;4.57;4.28;;;;;;;;;;4989664;28;24448;-54
2021/07/28 10:36:12;;;;;;;4.30;4.00;;;;;;;;;;4989480;28;24496;-54
2021/07/28 10:38:51;;;;;;;4.60;4.30;;;;;;;;;;4988864;28;24500;-53
2021/07/28 10:41:35;;;;;;;3.80;3.60;;;;;;;;;;4989112;28;25308;-54
2021/07/28 10:44:16;;;;;;;4.40;4.10;;;;;;;;;;4989177;28;24437;-53
2021/07/28 10:46:54;;;;;;;4.90;4.50;;;;;;;;;;4989611;28;24451;-53
2021/07/28 10:49:28;;;;;;;3.97;3.78;;;;;;;;;;4988517;28;24795;-54
2021/07/28 10:51:54;;;;;;;3.80;3.60;;;;;;;;;;4988645;28;24541;-54
2021/07/28 10:54:39;;;;;;;4.20;4.00;;;;;;;;;;4988885;28;24428;-54
2021/07/28 10:57:04;;;;;;;4.22;3.92;;;;;;;;;;4988991;28;24436;-54
2021/07/28 10:59:39;;;;;;;4.00;3.80;;;;;;;;;;4988827;28;24958;-53
2021/07/28 11:02:05;;;;;;;4.57;4.20;;;;;;;;;;4988813;28;24485;-54
2021/07/28 11:04:30;;;;;;;4.30;4.00;;;;;;;;;;4989093;28;24520;-54
2021/07/28 11:06:55;;;;;;;4.20;4.00;;;;;;;;;;4988746;28;24514;-54
2021/07/28 11:09:20;;;;;;;3.92;3.63;;;;;;;;;;4988276;28;24457;-54
2021/07/28 11:11:46;;;;;;;3.90;3.70;;;;;;;;;;4988901;28;24401;-54
2021/07/28 11:14:11;;;;;;;3.90;3.70;;;;;;;;;;4988319;28;24424;-54
2021/07/28 11:16:39;;;;;;;4.50;4.30;;;;;;;;;;4988678;28;24420;-55
2021/07/28 11:19:04;;;;;;;5.10;4.70;;;;;;;;;;4988001;28;24922;-54
2021/07/28 11:21:29;;;;;;;4.43;4.13;;;;;;;;;;4988501;28;24467;-54
2021/07/28 11:24:01;;;;;;;4.60;4.30;;;;;;;;;;4988260;28;24468;-54
2021/07/28 11:26:28;;;;;;;5.20;4.80;;;;;;;;;;4987896;28;24512;-54
2021/07/28 11:28:54;;;;;;;5.20;4.70;;;;;;;;;;4988358;28;24428;-54
2021/07/28 11:31:27;;;;;;;4.93;4.60;;;;;;;;;;4988464;28;24816;-54
2021/07/28 11:34:01;;;;;;;5.75;5.35;;;;;;;;;;4988162;28;24393;-54
2021/07/28 11:36:26;;;;;;;5.90;5.50;;;;;;;;;;4986657;28;24409;-54
2021/07/28 11:38:51;;;;;;;5.22;4.82;;;;;;;;;;4987933;28;24409;-54
2021/07/28 11:41:20;;;;;;;5.50;5.10;;;;;;;;;;4988169;28;24431;-54
2021/07/28 11:43:45;;;;;;;5.93;5.50;;;;;;;;;;4988094;28;24493;-54
2021/07/28 11:46:11;;;;;;;5.88;5.38;;;;;;;;;;4987678;28;25046;-56
2021/07/28 11:48:37;;;;;;;5.40;5.00;;;;;;;;;;4988210;28;24408;-55
2021/07/28 11:51:06;;;;;;;5.63;5.13;;;;;;;;;;4988286;28;24389;-54
2021/07/28 11:53:32;;;;;;;5.10;4.70;;;;;;;;;;4987515;28;24479;-54
2021/07/28 11:56:13;;;;;;;5.30;4.90;;;;;;;;;;4987825;28;24397;-54
2021/07/28 11:58:42;;;;;;;5.45;5.00;;;;;;;;;;4968969;28;24398;-54
2021/07/28 12:01:26;;;;;;;4.40;4.10;;;;;;;;;;4975985;28;24421;-54
2021/07/28 12:03:52;;;;;;;5.53;5.13;;;;;;;;;;4988230;28;24385;-54
2021/07/28 12:06:30;;;;;;;5.22;4.82;;;;;;;;;;4987899;28;24512;-54
2021/07/28 12:09:05;;;;;;;4.63;4.32;;;;;;;;;;4987729;28;24413;-54
2021/07/28 12:11:31;;;;;;;5.20;4.90;;;;;;;;;;4988182;28;24449;-54
2021/07/28 12:14:01;;;;;;;4.75;4.45;;;;;;;;;;4988128;28;24428;-54
2021/07/28 12:16:38;;;;;;;4.90;4.60;;;;;;;;;;4987829;28;24413;-54
2021/07/28 12:19:05;;;;;;;5.25;4.75;;;;;;;;;;4987860;28;24405;-54
2021/07/28 12:21:50;;;;;;;5.20;4.80;;;;;;;;;;4987820;28;24803;-54
2021/07/28 12:24:15;;;;;;;5.05;4.65;;;;;;;;;;4987496;28;24460;-54
2021/07/28 12:26:44;;;;;;;4.70;4.40;;;;;;;;;;4987818;28;24425;-53
2021/07/28 12:29:09;;;;;;;4.10;3.90;;;;;;;;;;4987438;28;24487;-53
2021/07/28 12:31:34;;;;;;;4.90;4.55;;;;;;;;;;4988267;28;24413;-54
2021/07/28 12:34:18;;;;;;;5.50;5.00;;;;;;;;;;4989315;28;24428;-53
2021/07/28 12:36:44;;;;;;;5.55;5.15;;;;;;;;;;4989631;28;25041;-53
2021/07/28 12:39:09;;;;;;;5.10;4.70;;;;;;;;;;4988897;28;24491;-53
2021/07/28 12:41:34;;;;;;;5.00;4.60;;;;;;;;;;4988541;28;24456;-53
2021/07/28 12:43:59;;;;;;;5.03;4.72;;;;;;;;;;4988295;28;24444;-54
2021/07/28 12:46:24;;;;;;;5.40;5.00;;;;;;;;;;4987740;28;24428;-54
2021/07/28 12:49:11;;;;;;;5.20;4.80;;;;;;;;;;4985774;28;24795;-54
2021/07/28 12:51:35;;;;;;;4.40;4.10;;;;;;;;;;4983149;28;24440;-54
2021/07/28 12:54:00;;;;;;;4.78;4.47;;;;;;;;;;4973222;28;25040;-54
2021/07/28 12:56:26;;;;;;;4.90;4.60;;;;;;;;;;4985175;28;25049;-54
2021/07/28 12:58:51;;;;;;;4.30;4.00;;;;;;;;;;4987649;28;24553;-53
2021/07/28 13:01:16;;;;;;;4.95;4.65;;;;;;;;;;4987256;28;24557;-53
2021/07/28 13:03:41;;;;;;;5.40;5.00;;;;;;;;;;4983831;28;24993;-53
2021/07/28 13:06:08;;;;;;;4.67;4.37;;;;;;;;;;4985747;28;24950;-53
2021/07/28 13:08:33;;;;;;;4.90;4.60;;;;;;;;;;4987038;28;24421;-53
2021/07/28 13:10:59;;;;;;;4.87;4.40;;;;;;;;;;4985941;28;24413;-53
2021/07/28 13:13:24;;;;;;;5.22;4.82;;;;;;;;;;4987543;28;24828;-53
2021/07/28 13:15:51;;;;;;;4.73;4.40;;;;;;;;;;4986233;28;24417;-53
2021/07/28 13:18:16;;;;;;;4.80;4.40;;;;;;;;;;4985502;28;24433;-53
2021/07/28 13:20:41;;;;;;;5.13;4.70;;;;;;;;;;4989151;28;24838;-53
2021/07/28 13:23:07;;;;;;;4.60;4.30;;;;;;;;;;4990951;28;24392;-52
2021/07/28 13:25:32;;;;;;;5.40;4.90;;;;;;;;;;4990043;28;24408;-53
2021/07/28 13:27:58;;;;;;;5.60;5.20;;;;;;;;;;4990187;28;24487;-53
2021/07/28 13:30:27;;;;;;;4.47;4.17;;;;;;;;;;4987620;28;24428;-54
2021/07/28 13:32:52;;;;;;;5.43;5.10;;;;;;;;;;4990977;28;24400;-54
2021/07/28 13:35:17;;;;;;;5.10;4.80;;;;;;;;;;4997349;28;24768;-54
2021/07/28 13:37:43;;;;;;;5.40;5.00;;;;;;;;;;4988885;28;24421;-53
2021/07/28 13:40:10;;;;;;;5.07;4.60;;;;;;;;;;4988435;28;24420;-54
2021/07/28 13:42:39;;;;;;;5.50;5.10;;;;;;;;;;4989642;28;24550;-53
2021/07/28 13:45:05;;;;;;;5.30;4.90;;;;;;;;;;4988898;28;24445;-54
2021/07/28 13:47:31;;;;;;;5.20;4.90;;;;;;;;;;4988741;28;24958;-53
2021/07/28 13:49:57;;;;;;;4.93;4.53;;;;;;;;;;4988767;28;24448;-53
2021/07/28 13:52:22;;;;;;;5.40;5.00;;;;;;;;;;4989949;28;24536;-53
2021/07/28 13:54:47;;;;;;;5.70;5.30;;;;;;;;;;4987961;28;24470;-53
2021/07/28 13:57:15;;;;;;;5.90;5.40;;;;;;;;;;4984078;28;24572;-53
2021/07/28 13:59:40;;;;;;;5.10;4.70;;;;;;;;;;4977256;28;24511;-53
2021/07/28 14:02:06;;;;;;;5.07;4.77;;;;;;;;;;4978517;28;24456;-53
2021/07/28 14:04:31;;;;;;;4.80;4.50;;;;;;;;;;4977519;28;24413;-53
2021/07/28 14:06:56;;;;;;;5.80;5.40;;;;;;;;;;4979210;28;24413;-53
2021/07/28 14:09:21;;;;;;;6.20;5.70;;;;;;;;;;4978144;28;24436;-52
2021/07/28 14:11:47;;;;;;;5.90;5.50;;;;;;;;;;4976254;28;24400;-52
2021/07/28 14:14:13;;;;;;;5.90;5.50;;;;;;;;;;4989656;28;24421;-52
2021/07/28 14:16:38;;;;;;;5.70;5.20;;;;;;;;;;4989199;28;24413;-53
2021/07/28 14:19:04;;;;;;;5.40;5.00;;;;;;;;;;4989957;28;24431;-53
2021/07/28 14:21:29;;;;;;;5.50;5.00;;;;;;;;;;4989541;28;24978;-54
2021/07/28 14:23:54;;;;;;;5.20;4.80;;;;;;;;;;4990088;28;24445;-53
2021/07/28 14:26:19;;;;;;;5.30;4.90;;;;;;;;;;4989267;28;24421;-53
2021/07/28 14:28:44;;;;;;;5.90;5.50;;;;;;;;;;4989016;28;24939;-53
2021/07/28 14:31:09;;;;;;;5.82;5.32;;;;;;;;;;4989726;28;24552;-54
2021/07/28 14:33:34;;;;;;;5.32;4.93;;;;;;;;;;4989371;28;24491;-54
2021/07/28 14:35:59;;;;;;;5.43;5.03;;;;;;;;;;4989011;28;24943;-54
2021/07/28 14:38:25;;;;;;;4.95;4.65;;;;;;;;;;4989212;28;24440;-54
2021/07/28 14:40:51;;;;;;;5.07;4.77;;;;;;;;;;4989130;28;24476;-54
2021/07/28 14:43:16;;;;;;;5.22;4.82;;;;;;;;;;4989333;28;24520;-54
2021/07/28 14:45:41;;;;;;;4.88;4.47;;;;;;;;;;4988753;28;24500;-54
2021/07/28 14:48:07;;;;;;;5.00;4.70;;;;;;;;;;4989557;28;24989;-54
2021/07/28 14:50:32;;;;;;;5.60;5.20;;;;;;;;;;4988760;28;24481;-54
2021/07/28 14:52:58;;;;;;;5.00;4.60;;;;;;;;;;4988781;28;24503;-54
2021/07/28 14:55:23;;;;;;;4.30;4.00;;;;;;;;;;4988139;28;24420;-54
2021/07/28 14:57:48;;;;;;;4.78;4.45;;;;;;;;;;4988829;28;24452;-54